createdAt,value
2022-08-20T00:00:49.882Z,100
2022-08-20T00:10:55.506Z,100
2022-08-20T00:20:54.114Z,100
2022-08-20T00:30:56.173Z,100
2022-08-20T01:01:02.166Z,100
2022-08-20T01:11:04.645Z,100
2022-08-20T01:21:06.793Z,100
2022-08-20T01:41:10.815Z,100
2022-08-20T01:51:12.504Z,100
2022-08-20T02:01:14.244Z,100
2022-08-20T02:11:16.643Z,100
2022-08-20T02:21:18.398Z,100
2022-08-20T02:31:21.027Z,100
2022-08-20T03:21:32.517Z,100
2022-08-20T04:21:46.073Z,100
2022-08-20T04:51:52.130Z,100
2022-08-20T05:42:02.670Z,100
2022-08-20T06:02:07.492Z,100
2022-08-20T06:52:17.386Z,100
2022-08-20T07:02:19.897Z,100
2022-08-20T07:22:23.964Z,100
2022-08-20T07:32:26.170Z,100
2022-08-20T07:42:28.037Z,100
2022-08-20T07:52:30.110Z,100
2022-08-20T08:02:32.708Z,100
2022-08-20T08:12:34.862Z,100
2022-08-20T08:22:36.690Z,100
2022-08-20T08:32:38.585Z,100
2022-08-20T08:42:43.201Z,100
2022-08-20T08:52:43.183Z,100
2022-08-20T09:02:45.755Z,100
2022-08-20T09:12:47.989Z,100
2022-08-20T09:22:50.212Z,100
2022-08-20T09:32:52.837Z,100
2022-08-20T09:42:54.714Z,100
2022-08-20T09:52:56.936Z,100
2022-08-20T10:13:01.296Z,100
2022-08-20T10:23:03.775Z,100
2022-08-20T10:33:05.634Z,100
2022-08-20T10:43:07.692Z,100
2022-08-20T10:53:10.035Z,98
2022-08-20T11:03:12.316Z,90
2022-08-20T11:13:14.657Z,85
2022-08-20T11:23:16.405Z,84
2022-08-20T11:33:18.593Z,83
2022-08-20T11:43:20.371Z,80
2022-08-20T11:53:22.295Z,77
2022-08-20T12:03:24.286Z,76
2022-08-20T12:13:31.080Z,76
2022-08-20T12:23:28.491Z,76
2022-08-20T12:33:30.878Z,76
2022-08-20T12:43:33.280Z,76
2022-08-20T12:53:35.753Z,77
2022-08-20T13:03:40.805Z,73
2022-08-20T13:13:40.078Z,70
2022-08-20T13:23:41.760Z,69
2022-08-20T13:33:43.656Z,68
2022-08-20T13:43:45.523Z,65
2022-08-20T13:53:47.833Z,62
2022-08-20T14:03:49.586Z,60
2022-08-20T14:13:51.406Z,58
2022-08-20T14:23:53.386Z,56
2022-08-20T14:33:55.771Z,55
2022-08-20T14:43:58.145Z,54
2022-08-20T14:54:00.248Z,54
2022-08-20T15:04:02.010Z,54
2022-08-20T15:14:04.287Z,54
2022-08-20T15:24:06.825Z,54
2022-08-20T15:34:08.637Z,53
2022-08-20T15:44:11.183Z,53
2022-08-20T15:54:13.347Z,53
2022-08-20T16:04:15.256Z,52
2022-08-20T16:14:17.879Z,52
2022-08-20T16:24:20.173Z,51
2022-08-20T16:34:32.225Z,51
2022-08-20T16:54:28.593Z,51
2022-08-20T17:24:32.831Z,51
2022-08-20T17:34:35.393Z,51
2022-08-20T17:44:37.455Z,51
2022-08-20T17:54:39.693Z,51
2022-08-20T18:04:41.466Z,51
2022-08-20T18:14:43.648Z,51
2022-08-20T18:24:45.929Z,51
2022-08-20T18:44:49.466Z,51
2022-08-20T18:54:51.573Z,51
2022-08-20T19:04:53.652Z,51
2022-08-20T19:14:55.530Z,51
2022-08-20T19:24:57.373Z,51
2022-08-20T19:34:59.564Z,52
2022-08-20T19:45:02.114Z,52
2022-08-20T19:55:04.503Z,52
2022-08-20T20:05:06.586Z,53
2022-08-20T20:15:08.896Z,53
2022-08-20T20:25:11.438Z,54
2022-08-20T20:35:13.772Z,55
2022-08-20T20:45:16.308Z,55
2022-08-20T20:55:17.962Z,56
2022-08-20T21:05:19.812Z,57
2022-08-20T21:15:22.069Z,58
2022-08-20T21:15:43.999Z,58
2022-08-20T21:35:32.926Z,60
2022-08-20T21:45:35.201Z,62
2022-08-20T21:55:39.489Z,63
2022-08-20T22:15:40.902Z,66
2022-08-20T22:25:43.432Z,68
2022-08-20T22:35:45.367Z,71
2022-08-20T22:45:47.936Z,73
2022-08-20T22:55:50.430Z,77
2022-08-20T23:05:52.981Z,80
2022-08-20T23:15:54.923Z,84
2022-08-20T23:25:56.981Z,87
2022-08-20T23:35:59.301Z,90
2022-08-20T23:46:01.865Z,93
2022-08-20T23:56:04.159Z,96
